Bryon Bay, Australia
Current Conditions -  °F | °C
As of 5:00 PM on Friday 31 Oct 2014 (Local Time) from YBNA Reporting Station
Clear Clear  
Wind Chill: 79°   Ceiling: Unl
Heat Index: 81°   Visibility: 6mi
Dew Point: 66°   Wind: 21mph
Humidity: 65%   Direction: 20°NNE
Pressure: 29.85"   Gusts: NA
Location:  28.66°S, 153.62°E
Report Text: YBNA 310600Z AUTO 02018KT 9999 // NCD 26/19 Q1011
Loading
Personal Weather Stations






























Interactive Weather Map
Tropical Storm Tracking
New forecast layout! Learn more

10-Day Weather Forecast

Advertisements
Track Severe Weather on mobile